createdAt,value
2023-09-02T00:00:07.296Z,1.75
2023-09-02T00:02:43.900Z,1.85
2023-09-02T00:05:17.654Z,1.85
2023-09-02T00:07:48.569Z,1.73
2023-09-02T00:10:19.679Z,1.92
2023-09-02T00:12:50.457Z,2.15
2023-09-02T00:15:21.337Z,1.88
2023-09-02T00:17:52.239Z,2.08
2023-09-02T00:20:25.806Z,2.45
2023-09-02T00:22:57.410Z,2.05
2023-09-02T00:25:28.306Z,2.30
2023-09-02T00:27:59.216Z,2.70
2023-09-02T00:30:30.027Z,1.95
2023-09-02T00:33:00.942Z,2.30
2023-09-02T00:35:34.504Z,2.00
2023-09-02T00:38:05.516Z,2.17
2023-09-02T00:40:37.274Z,2.08
2023-09-02T00:43:09.090Z,2.30
2023-09-02T00:45:40.218Z,1.85
2023-09-02T00:48:11.673Z,2.00
2023-09-02T00:50:45.292Z,2.20
2023-09-02T00:53:17.990Z,1.83
2023-09-02T00:55:50.167Z,2.17
2023-09-02T00:58:21.584Z,2.00
2023-09-02T01:00:53.956Z,2.10
2023-09-02T01:03:24.968Z,2.10
2023-09-02T01:05:58.642Z,2.00
2023-09-02T01:08:30.488Z,2.00
2023-09-02T01:11:02.702Z,2.10
2023-09-02T01:13:34.941Z,2.30
2023-09-02T01:16:06.128Z,2.30
2023-09-02T01:18:38.152Z,2.22
2023-09-02T01:21:36.661Z,2.45
2023-09-02T01:24:31.980Z,2.35
2023-09-02T01:27:23.456Z,2.53
2023-09-02T01:30:03.871Z,2.75
2023-09-02T01:32:38.860Z,2.33
2023-09-02T01:35:12.049Z,2.33
2023-09-02T01:37:46.672Z,2.83
2023-09-02T01:40:23.575Z,1.90
2023-09-02T01:42:58.478Z,1.95
2023-09-02T01:45:31.149Z,2.17
2023-09-02T01:48:02.543Z,2.55
2023-09-02T01:50:35.874Z,2.15
2023-09-02T01:53:08.025Z,2.10
2023-09-02T01:55:39.420Z,2.60
2023-09-02T01:58:14.859Z,2.70
2023-09-02T02:00:45.861Z,2.58
2023-09-02T02:03:25.008Z,2.58
2023-09-02T02:05:58.002Z,2.50
2023-09-02T02:08:37.075Z,2.45
2023-09-02T02:11:09.651Z,2.90
2023-09-02T02:13:43.345Z,2.70
2023-09-02T02:16:14.171Z,2.75
2023-09-02T02:18:45.236Z,2.35
2023-09-02T02:21:16.250Z,2.30
2023-09-02T02:23:47.155Z,2.40
2023-09-02T02:26:17.990Z,2.67
2023-09-02T02:28:51.954Z,2.30
2023-09-02T02:31:22.952Z,2.60
2023-09-02T02:33:54.061Z,2.60
2023-09-02T02:36:24.893Z,2.30
2023-09-02T02:38:55.953Z,2.28
2023-09-02T02:41:26.853Z,2.47
2023-09-02T02:44:00.489Z,2.17
2023-09-02T02:46:31.341Z,2.42
2023-09-02T02:49:02.372Z,2.35
2023-09-02T02:51:33.253Z,2.05
2023-09-02T02:54:04.194Z,2.03
2023-09-02T02:56:35.326Z,2.70
2023-09-02T02:59:08.910Z,2.17
2023-09-02T03:01:39.832Z,2.20
2023-09-02T03:04:11.128Z,2.10
2023-09-02T03:06:41.999Z,1.95
2023-09-02T03:09:12.857Z,2.17
2023-09-02T03:11:43.703Z,2.00
2023-09-02T03:14:17.670Z,1.70
2023-09-02T03:16:48.662Z,2.70
2023-09-02T03:19:19.927Z,2.55
2023-09-02T03:21:50.828Z,2.25
2023-09-02T03:24:21.607Z,2.13
2023-09-02T03:26:53.508Z,1.92
2023-09-02T03:29:27.022Z,2.33
2023-09-02T03:31:58.086Z,2.33
2023-09-02T03:34:29.088Z,2.58
2023-09-02T03:36:59.896Z,2.33
2023-09-02T03:39:32.560Z,2.20
2023-09-02T03:42:03.450Z,1.80
2023-09-02T03:44:37.060Z,2.35
2023-09-02T03:47:08.208Z,2.28
2023-09-02T03:49:39.256Z,3.05
2023-09-02T03:52:10.866Z,2.55
2023-09-02T03:54:41.937Z,2.30
2023-09-02T03:57:12.928Z,2.45
2023-09-02T03:59:46.402Z,2.38
2023-09-02T04:02:18.033Z,2.95
2023-09-02T04:04:49.106Z,2.05
2023-09-02T04:07:21.170Z,2.40
2023-09-02T04:09:52.323Z,2.60
2023-09-02T04:12:23.221Z,2.55
2023-09-02T04:14:56.831Z,2.50
2023-09-02T04:17:27.850Z,2.45
2023-09-02T04:20:01.900Z,2.40
2023-09-02T04:22:34.620Z,2.55
2023-09-02T04:25:05.596Z,2.22
2023-09-02T04:27:36.562Z,2.38
2023-09-02T04:30:12.561Z,2.20
2023-09-02T04:32:43.596Z,2.70
2023-09-02T04:35:14.874Z,2.30
2023-09-02T04:37:46.022Z,2.53
2023-09-02T04:40:18.210Z,2.53
2023-09-02T04:42:49.099Z,2.50
2023-09-02T04:45:23.059Z,2.47
2023-09-02T04:47:53.997Z,2.40
2023-09-02T04:50:25.440Z,2.95
2023-09-02T04:52:58.293Z,2.95
2023-09-02T04:55:30.424Z,2.53
2023-09-02T04:58:02.625Z,2.95
2023-09-02T05:00:38.714Z,2.47
2023-09-02T05:03:10.549Z,2.58
2023-09-02T05:05:42.340Z,3.10
2023-09-02T05:08:16.328Z,3.47
2023-09-02T05:10:47.229Z,2.50
2023-09-02T05:13:18.300Z,2.70
2023-09-02T05:15:54.035Z,3.00
2023-09-02T05:18:25.155Z,2.85
2023-09-02T05:20:59.916Z,2.55
2023-09-02T05:23:30.939Z,2.92
2023-09-02T05:26:02.284Z,3.15
2023-09-02T05:28:33.134Z,3.08
2023-09-02T05:31:07.084Z,3.45
2023-09-02T05:33:38.353Z,3.60
2023-09-02T05:36:09.962Z,3.17
2023-09-02T05:38:40.874Z,2.90
2023-09-02T05:41:11.760Z,3.00
2023-09-02T05:43:42.637Z,3.17
2023-09-02T05:46:16.157Z,3.15
2023-09-02T05:48:47.142Z,3.50
2023-09-02T05:51:18.117Z,3.65
2023-09-02T05:53:50.214Z,3.63
2023-09-02T05:56:21.050Z,3.50
2023-09-02T05:58:51.952Z,3.78
2023-09-02T06:01:25.386Z,3.65
2023-09-02T06:03:56.291Z,3.67
2023-09-02T06:06:27.522Z,3.70
2023-09-02T06:08:58.498Z,3.72
2023-09-02T06:11:29.607Z,2.50
2023-09-02T06:14:00.460Z,3.00
2023-09-02T06:16:34.011Z,2.25
2023-09-02T06:19:04.899Z,1.85
2023-09-02T06:21:35.680Z,4.00
2023-09-02T06:24:06.926Z,4.70
2023-09-02T06:26:37.745Z,2.05
2023-09-02T06:29:08.671Z,2.42
2023-09-02T06:31:42.185Z,3.28
2023-09-02T06:34:13.192Z,2.10
2023-09-02T06:36:44.341Z,2.50
2023-09-02T06:39:15.176Z,4.63
2023-09-02T06:41:46.784Z,2.50
2023-09-02T06:44:20.134Z,3.47
2023-09-02T06:46:54.375Z,3.13
2023-09-02T06:49:25.797Z,2.85
2023-09-02T06:51:56.901Z,3.67
2023-09-02T06:54:27.897Z,4.00
2023-09-02T06:56:58.759Z,4.13
2023-09-02T06:59:29.689Z,2.50
2023-09-02T07:02:03.783Z,2.38
2023-09-02T07:04:34.661Z,2.42
2023-09-02T07:07:05.514Z,3.20
2023-09-02T07:09:36.503Z,3.30
2023-09-02T07:12:07.925Z,2.38
2023-09-02T07:14:39.014Z,2.30
2023-09-02T07:17:12.685Z,2.92
2023-09-02T07:19:43.665Z,2.20
2023-09-02T07:22:14.486Z,2.28
2023-09-02T07:24:45.607Z,2.33
2023-09-02T07:27:16.449Z,2.30
2023-09-02T07:29:47.425Z,2.50
2023-09-02T07:32:20.871Z,2.20
2023-09-02T07:34:51.889Z,1.90
2023-09-02T07:37:22.794Z,2.13
2023-09-02T07:39:53.700Z,2.17
2023-09-02T07:42:24.575Z,2.05
2023-09-02T07:44:55.565Z,1.98
2023-09-02T07:47:30.154Z,2.47
2023-09-02T07:50:01.409Z,3.00
2023-09-02T07:52:32.344Z,3.35
2023-09-02T07:55:04.856Z,2.85
2023-09-02T07:57:35.706Z,2.83
2023-09-02T08:00:06.955Z,3.47
2023-09-02T08:02:46.354Z,2.97
2023-09-02T08:05:17.938Z,1.60
2023-09-02T08:07:49.243Z,2.95
2023-09-02T08:10:20.727Z,2.22
2023-09-02T08:12:51.935Z,3.80
2023-09-02T08:15:23.578Z,2.17
2023-09-02T08:18:00.255Z,3.67
2023-09-02T08:20:31.577Z,3.88
2023-09-02T08:23:02.654Z,2.92
2023-09-02T08:25:33.596Z,2.58
2023-09-02T08:28:04.546Z,2.85
2023-09-02T08:30:35.743Z,3.10
2023-09-02T08:33:11.269Z,3.35
2023-09-02T08:35:42.571Z,2.47
2023-09-02T08:38:13.728Z,3.25
2023-09-02T08:40:47.611Z,3.20
2023-09-02T08:43:19.437Z,3.78
2023-09-02T08:45:56.973Z,3.70
2023-09-02T08:48:31.210Z,3.50
2023-09-02T08:51:02.528Z,3.03
2023-09-02T08:53:36.498Z,2.92
2023-09-02T08:56:11.499Z,2.25
2023-09-02T08:58:44.206Z,3.75
2023-09-02T09:01:17.865Z,2.40
2023-09-02T09:03:53.416Z,2.60
2023-09-02T09:06:26.643Z,3.33
2023-09-02T09:08:59.172Z,2.88
2023-09-02T09:11:31.581Z,2.10
2023-09-02T09:14:05.357Z,2.50
2023-09-02T09:16:41.124Z,1.60
2023-09-02T09:19:14.826Z,1.50
2023-09-02T09:21:45.855Z,1.73
2023-09-02T09:24:17.194Z,1.52
2023-09-02T09:26:49.547Z,1.92
2023-09-02T09:29:22.589Z,2.40
2023-09-02T09:32:10.636Z,1.63
2023-09-02T09:34:46.490Z,1.30
2023-09-02T09:37:18.116Z,1.60
2023-09-02T09:39:52.994Z,2.00
2023-09-02T09:42:37.974Z,1.92
2023-09-02T09:45:10.399Z,1.83
2023-09-02T09:47:45.400Z,1.80
2023-09-02T09:50:21.017Z,2.50
2023-09-02T09:53:06.371Z,2.03
2023-09-02T09:55:37.387Z,1.60
2023-09-02T09:58:09.201Z,1.55
2023-09-02T10:00:40.674Z,1.55
2023-09-02T10:03:12.780Z,2.15
2023-09-02T10:05:46.812Z,2.10
2023-09-02T10:08:18.212Z,1.80
2023-09-02T10:10:49.096Z,1.73
2023-09-02T10:13:20.697Z,2.05
2023-09-02T10:15:52.287Z,2.00
2023-09-02T10:18:24.872Z,1.40
2023-09-02T10:20:59.282Z,1.40
2023-09-02T10:23:30.266Z,1.45
2023-09-02T10:26:07.678Z,2.40
2023-09-02T10:28:42.338Z,2.17
2023-09-02T10:31:23.998Z,1.40
2023-09-02T10:34:04.006Z,2.03
2023-09-02T10:36:41.089Z,2.00
2023-09-02T10:39:17.650Z,2.40
2023-09-02T10:41:52.093Z,2.20
2023-09-02T10:44:26.281Z,1.50
2023-09-02T10:46:59.713Z,2.50
2023-09-02T10:49:31.611Z,1.65
2023-09-02T10:52:05.925Z,2.15
2023-09-02T10:55:04.270Z,2.55
2023-09-02T10:57:48.247Z,2.85
2023-09-02T11:00:21.334Z,1.98
2023-09-02T11:02:54.447Z,3.20
2023-09-02T11:05:26.716Z,2.50
2023-09-02T11:08:00.504Z,1.70
2023-09-02T11:10:56.892Z,1.90
2023-09-02T11:13:27.956Z,1.88
2023-09-02T11:16:17.485Z,1.90
2023-09-02T11:18:48.505Z,1.73
2023-09-02T11:21:40.732Z,2.25
2023-09-02T11:24:22.380Z,1.58
2023-09-02T11:26:57.381Z,1.98
2023-09-02T11:29:29.553Z,1.45
2023-09-02T11:32:01.635Z,1.60
2023-09-02T11:34:33.674Z,1.50
2023-09-02T11:37:05.106Z,1.40
2023-09-02T11:39:38.958Z,1.58
2023-09-02T11:42:11.094Z,1.52
2023-09-02T11:44:42.929Z,1.35
2023-09-02T11:47:19.058Z,1.48
2023-09-02T11:49:50.271Z,1.77
2023-09-02T11:52:25.319Z,1.50
2023-09-02T11:54:58.954Z,1.60
2023-09-02T11:57:30.085Z,1.20
2023-09-02T12:00:00.929Z,1.83
2023-09-02T12:02:32.000Z,1.50
2023-09-02T12:05:02.969Z,1.50
2023-09-02T12:07:35.536Z,1.83
2023-09-02T12:10:12.918Z,1.60
2023-09-02T12:12:46.089Z,1.85
2023-09-02T12:15:18.213Z,1.52
2023-09-02T12:17:50.419Z,1.60
2023-09-02T12:20:22.005Z,1.60
2023-09-02T12:22:53.086Z,1.77
2023-09-02T12:25:28.242Z,1.90
2023-09-02T12:28:14.061Z,1.52
2023-09-02T12:30:50.699Z,1.60
2023-09-02T12:33:21.919Z,1.65
2023-09-02T12:35:53.633Z,1.30
2023-09-02T12:38:25.576Z,1.23
2023-09-02T12:41:00.586Z,1.10
2023-09-02T12:43:32.424Z,1.50
2023-09-02T12:46:03.633Z,1.70
2023-09-02T12:48:34.991Z,2.05
2023-09-02T12:51:06.002Z,1.50
2023-09-02T12:53:37.476Z,1.60
2023-09-02T12:56:11.161Z,1.50
2023-09-02T12:58:42.043Z,2.25
2023-09-02T13:01:13.272Z,1.60
2023-09-02T13:03:45.304Z,2.08
2023-09-02T13:06:16.269Z,1.65
2023-09-02T13:08:48.629Z,1.70
2023-09-02T13:11:22.901Z,1.55
2023-09-02T13:13:53.919Z,1.50
2023-09-02T13:16:25.016Z,1.83
2023-09-02T13:18:57.159Z,1.60
2023-09-02T13:21:28.424Z,1.50
2023-09-02T13:24:00.865Z,1.65
2023-09-02T13:26:34.601Z,1.90
2023-09-02T13:29:09.064Z,1.80
2023-09-02T13:31:40.063Z,1.63
2023-09-02T13:34:10.953Z,1.50
2023-09-02T13:36:41.892Z,1.70
2023-09-02T13:39:12.824Z,1.55
2023-09-02T13:41:46.297Z,1.20
2023-09-02T13:44:17.494Z,1.60
2023-09-02T13:46:48.468Z,1.50
2023-09-02T13:49:19.482Z,1.60
2023-09-02T13:51:50.548Z,1.50
2023-09-02T13:54:25.362Z,1.63
2023-09-02T13:56:59.020Z,1.55
2023-09-02T13:59:30.405Z,1.50
2023-09-02T14:02:05.219Z,1.70
2023-09-02T14:04:38.095Z,1.70
2023-09-02T14:07:09.365Z,1.35
2023-09-02T14:09:44.443Z,1.50
2023-09-02T14:12:21.713Z,1.60
2023-09-02T14:14:52.602Z,1.88
2023-09-02T14:17:23.573Z,2.17
2023-09-02T14:19:54.367Z,1.33
2023-09-02T14:22:25.208Z,1.70
2023-09-02T14:24:56.089Z,1.60
2023-09-02T14:27:29.619Z,1.70
2023-09-02T14:30:00.446Z,2.00
2023-09-02T14:32:31.329Z,1.67
2023-09-02T14:35:02.252Z,1.90
2023-09-02T14:37:33.173Z,1.40
2023-09-02T14:40:05.178Z,1.75
2023-09-02T14:42:39.220Z,1.80
2023-09-02T14:45:10.878Z,1.70
2023-09-02T14:47:43.863Z,2.00
2023-09-02T14:50:14.925Z,1.75
2023-09-02T14:52:46.121Z,1.80
2023-09-02T14:55:19.064Z,1.85
2023-09-02T14:57:54.653Z,1.63
2023-09-02T15:00:25.923Z,1.58
2023-09-02T15:02:58.119Z,1.60
2023-09-02T15:05:30.557Z,1.70
2023-09-02T15:08:05.160Z,1.65
2023-09-02T15:10:36.653Z,2.13
2023-09-02T15:13:10.202Z,1.90
2023-09-02T15:15:44.746Z,1.45
2023-09-02T15:18:22.970Z,1.90
2023-09-02T15:20:54.140Z,1.63
2023-09-02T15:23:25.609Z,1.73
2023-09-02T15:26:00.378Z,1.85
2023-09-02T15:28:33.913Z,1.77
2023-09-02T15:31:07.180Z,1.98
2023-09-02T15:33:38.169Z,1.98
2023-09-02T15:36:19.430Z,2.00
2023-09-02T15:38:50.213Z,2.17
2023-09-02T15:41:22.117Z,1.92
2023-09-02T15:43:56.852Z,1.73
2023-09-02T15:46:29.008Z,2.00
2023-09-02T15:49:02.650Z,1.52
2023-09-02T15:51:33.489Z,1.83
2023-09-02T15:54:04.596Z,1.67
2023-09-02T15:56:35.481Z,2.22
2023-09-02T15:59:08.950Z,1.58
2023-09-02T16:01:39.903Z,1.92
2023-09-02T16:04:10.806Z,2.22
2023-09-02T16:06:41.618Z,2.28
2023-09-02T16:09:12.586Z,1.80
2023-09-02T16:11:43.908Z,1.73
2023-09-02T16:14:17.383Z,2.17
2023-09-02T16:16:48.290Z,2.03
2023-09-02T16:19:19.125Z,2.00
2023-09-02T16:21:50.092Z,2.08
2023-09-02T16:24:20.961Z,2.53
2023-09-02T16:26:51.905Z,2.72
2023-09-02T16:29:27.459Z,2.55
2023-09-02T16:31:58.326Z,2.20
2023-09-02T16:34:29.273Z,2.60
2023-09-02T16:37:01.935Z,2.40
2023-09-02T16:39:33.045Z,2.90
2023-09-02T16:42:05.697Z,2.88
2023-09-02T16:44:39.231Z,2.70
2023-09-02T16:47:10.242Z,2.70
2023-09-02T16:49:41.382Z,3.30
2023-09-02T16:52:12.760Z,3.10
2023-09-02T16:54:43.601Z,3.78
2023-09-02T16:57:14.766Z,2.75
2023-09-02T16:59:48.262Z,3.78
2023-09-02T17:02:26.557Z,4.05
2023-09-02T17:04:57.741Z,4.30
2023-09-02T17:07:28.543Z,3.85
2023-09-02T17:09:59.849Z,4.20
2023-09-02T17:12:30.753Z,3.65
2023-09-02T17:15:04.262Z,3.70
2023-09-02T17:17:42.912Z,5.03
2023-09-02T17:20:29.989Z,4.47
2023-09-02T17:23:02.739Z,4.03
2023-09-02T17:25:36.004Z,4.10
2023-09-02T17:28:07.529Z,4.28
2023-09-02T17:30:41.679Z,4.57
2023-09-02T17:33:12.757Z,4.18
2023-09-02T17:35:43.645Z,4.00
2023-09-02T17:38:14.471Z,4.18
2023-09-02T17:40:46.052Z,4.82
2023-09-02T17:43:16.932Z,4.65
2023-09-02T17:45:50.497Z,4.85
2023-09-02T17:48:21.644Z,5.10
2023-09-02T17:50:52.837Z,5.15
2023-09-02T17:53:23.803Z,4.38
2023-09-02T17:55:54.723Z,4.60
2023-09-02T17:58:25.551Z,4.68
2023-09-02T18:00:59.207Z,4.07
2023-09-02T18:03:30.305Z,4.10
2023-09-02T18:06:01.330Z,4.25
2023-09-02T18:08:47.310Z,4.55
2023-09-02T18:11:22.997Z,3.95
2023-09-02T18:13:53.955Z,4.60
2023-09-02T18:16:29.977Z,4.30
2023-09-02T18:19:00.833Z,4.10
2023-09-02T18:21:31.636Z,3.88
2023-09-02T18:24:04.817Z,4.57
2023-09-02T18:26:35.946Z,4.28
2023-09-02T18:29:08.173Z,3.63
2023-09-02T18:31:41.848Z,4.15
2023-09-02T18:34:12.970Z,3.85
2023-09-02T18:36:43.849Z,3.50
2023-09-02T18:39:14.734Z,3.88
2023-09-02T18:41:45.785Z,3.80
2023-09-02T18:44:16.924Z,4.28
2023-09-02T18:46:51.223Z,4.10
2023-09-02T18:49:22.131Z,4.15
2023-09-02T18:51:53.037Z,3.42
2023-09-02T18:54:23.910Z,3.78
2023-09-02T18:56:55.490Z,3.17
2023-09-02T18:59:27.928Z,3.72
2023-09-02T19:02:01.810Z,3.97
2023-09-02T19:04:32.772Z,3.75
2023-09-02T19:07:04.116Z,4.03
2023-09-02T19:09:35.610Z,3.88
2023-09-02T19:12:06.732Z,3.40
2023-09-02T19:14:37.669Z,4.40
2023-09-02T19:17:11.305Z,3.95
2023-09-02T19:19:42.133Z,3.60
2023-09-02T19:22:13.096Z,3.50
2023-09-02T19:24:44.262Z,3.70
2023-09-02T19:27:15.133Z,3.45
2023-09-02T19:29:46.103Z,3.40
2023-09-02T19:32:19.674Z,3.97
2023-09-02T19:34:51.194Z,3.92
2023-09-02T19:37:22.150Z,3.42
2023-09-02T19:39:56.797Z,3.33
2023-09-02T19:42:27.900Z,3.30
2023-09-02T19:44:58.766Z,3.70
2023-09-02T19:47:32.427Z,3.08
2023-09-02T19:50:03.506Z,3.13
2023-09-02T19:52:36.084Z,3.15
2023-09-02T19:55:08.250Z,3.13
2023-09-02T19:57:39.303Z,3.08
2023-09-02T20:00:12.908Z,3.35
2023-09-02T20:02:47.985Z,3.20
2023-09-02T20:05:19.015Z,3.63
2023-09-02T20:07:50.133Z,3.20
2023-09-02T20:10:22.841Z,3.35
2023-09-02T20:12:56.997Z,3.47
2023-09-02T20:15:27.912Z,3.25
2023-09-02T20:18:01.393Z,3.22
2023-09-02T20:20:32.777Z,3.65
2023-09-02T20:23:04.065Z,3.25
2023-09-02T20:25:35.391Z,3.92
2023-09-02T20:28:06.939Z,3.60
2023-09-02T20:30:41.061Z,3.33
2023-09-02T20:33:14.539Z,3.38
2023-09-02T20:35:45.977Z,3.85
2023-09-02T20:38:16.980Z,3.10
2023-09-02T20:40:50.613Z,3.50
2023-09-02T20:43:21.446Z,3.53
2023-09-02T20:45:52.644Z,3.50
2023-09-02T20:48:26.624Z,3.53
2023-09-02T20:50:57.615Z,3.58
2023-09-02T20:53:28.659Z,3.35
2023-09-02T20:56:00.046Z,3.20
2023-09-02T20:58:31.968Z,3.60
2023-09-02T21:01:06.883Z,3.35
2023-09-02T21:03:40.536Z,3.28
2023-09-02T21:06:13.229Z,3.30
2023-09-02T21:08:44.064Z,3.92
2023-09-02T21:11:16.416Z,3.00
2023-09-02T21:13:50.943Z,4.20
2023-09-02T21:16:23.539Z,3.70
2023-09-02T21:18:57.236Z,3.38
2023-09-02T21:21:28.174Z,2.92
2023-09-02T21:24:04.416Z,4.90
2023-09-02T21:26:36.193Z,4.47
2023-09-02T21:29:07.153Z,3.60
2023-09-02T21:31:38.273Z,4.20
2023-09-02T21:34:11.910Z,3.88
2023-09-02T21:36:43.922Z,3.50
2023-09-02T21:39:14.866Z,3.70
2023-09-02T21:41:45.658Z,3.50
2023-09-02T21:44:16.957Z,3.63
2023-09-02T21:46:47.790Z,3.30
2023-09-02T21:49:21.185Z,4.03
2023-09-02T21:51:53.021Z,4.88
2023-09-02T21:54:23.950Z,3.45
2023-09-02T21:56:54.764Z,4.15
2023-09-02T21:59:25.702Z,3.60
2023-09-02T22:01:56.598Z,3.83
2023-09-02T22:04:30.158Z,3.88
2023-09-02T22:07:01.154Z,4.93
2023-09-02T22:09:32.055Z,3.90
2023-09-02T22:12:02.938Z,3.90
2023-09-02T22:14:33.838Z,4.75
2023-09-02T22:17:04.685Z,4.38
2023-09-02T22:19:38.149Z,4.47
2023-09-02T22:22:09.459Z,4.68
2023-09-02T22:24:40.332Z,4.00
2023-09-02T22:27:11.184Z,4.25
2023-09-02T22:29:42.093Z,4.70
2023-09-02T22:32:12.978Z,5.00
2023-09-02T22:34:46.438Z,5.25
2023-09-02T22:37:19.993Z,5.30
2023-09-02T22:39:50.940Z,3.90
2023-09-02T22:42:21.743Z,4.85
2023-09-02T22:44:53.012Z,5.97
2023-09-02T22:47:23.956Z,5.05
2023-09-02T22:49:58.293Z,4.05
2023-09-02T22:52:29.462Z,3.50
2023-09-02T22:55:00.614Z,4.00
2023-09-02T22:57:31.529Z,4.35
2023-09-02T23:00:02.348Z,3.75
2023-09-02T23:02:33.391Z,4.20
2023-09-02T23:05:07.214Z,4.13
2023-09-02T23:07:38.144Z,5.30
2023-09-02T23:10:10.092Z,4.45
2023-09-02T23:12:40.818Z,3.97
2023-09-02T23:15:12.361Z,5.88
2023-09-02T23:17:43.382Z,4.20
2023-09-02T23:20:18.182Z,4.30
2023-09-02T23:22:49.351Z,4.25
2023-09-02T23:25:20.615Z,5.38
2023-09-02T23:27:52.809Z,4.60
2023-09-02T23:30:24.034Z,6.07
2023-09-02T23:32:54.976Z,7.07
2023-09-02T23:35:29.052Z,4.82
2023-09-02T23:38:00.066Z,4.93
2023-09-02T23:40:30.877Z,4.32
2023-09-02T23:43:01.812Z,9.18
2023-09-02T23:45:32.633Z,5.00
2023-09-02T23:48:03.753Z,7.57
2023-09-02T23:50:37.301Z,5.07
2023-09-02T23:53:08.397Z,8.63
2023-09-02T23:55:39.296Z,8.93
2023-09-02T23:58:13.121Z,9.00
